Time;durP1;ratioP1;P1;durP2;ratioP2;P2;SDS_P1;SDS_P2;PMS_P1;PMS_P2;Temp;Humidity;BMP_temperature;BMP_pressure;BME280_temperature;BME280_humidity;BME280_pressure;Samples;Min_cycle;Max_cycle;Signal;HPM_P1;HPM_P2
2022/12/30 00:00:32;;;;;;;;;;;;;;;16.36;68.23;100693.69;2093917;28;19928;-72
2022/12/30 00:01:35;;;;;;;;;;;;;;;16.35;68.20;100698.34;2095267;28;19936;-72
2022/12/30 00:02:37;;;;;;;;;;;;;;;16.36;68.22;100708.06;2087412;28;20384;-72
2022/12/30 00:03:39;;;;;;;;;;;;;;;16.36;68.26;100702.59;2097573;28;19928;-72
2022/12/30 00:04:41;;;;;;;;;;;;;;;16.36;68.18;100702.59;2093612;28;19928;-73
2022/12/30 00:05:45;;;;;;;;;;;;;;;16.36;68.09;100710.03;2087491;28;19929;-73
2022/12/30 00:06:48;;;;;;;;;;;;;;;16.35;68.23;100703.78;2086834;28;19929;-73
2022/12/30 00:07:49;;;;;;;;;;;;;;;16.36;68.19;100704.56;2084383;28;19975;-73
2022/12/30 00:08:54;;;;;;;;;;;;;;;16.35;68.06;100705.72;2080942;28;19929;-73
2022/12/30 00:09:55;;;;;;;;;;;;;;;16.35;68.24;100703.78;2078954;28;20145;-72
2022/12/30 00:10:58;;;;;;;;;;;;;;;16.35;68.09;100709.22;2077989;28;20424;-72
2022/12/30 00:33:06;;;;;;;;;;;;;;;16.35;68.02;100698.34;2077993;28;19929;-72
2022/12/30 00:34:06;;;;;;;;;;;;;;;16.33;67.78;100724.41;2054877;28;19934;-72
2022/12/30 00:35:08;;;;;;;;;;;;;;;16.32;67.65;100722.84;2060508;28;20045;-72
2022/12/30 00:36:11;;;;;;;;;;;;;;;16.32;67.96;100715.44;2062439;28;21187;-72
2022/12/30 00:37:14;;;;;;;;;;;;;;;16.31;67.56;100722.06;2080036;28;19932;-72
2022/12/30 00:38:17;;;;;;;;;;;;;;;16.31;67.50;100719.34;2082362;28;19925;-72
2022/12/30 00:39:18;;;;;;;;;;;;;;;16.32;67.87;100715.44;2077206;28;20332;-73
2022/12/30 00:40:21;;;;;;;;;;;;;;;16.31;67.82;100727.53;2084251;28;19925;-72
2022/12/30 00:44:03;;;;;;;;;;;;;;;16.32;67.50;100734.53;2095255;28;21252;-73
2022/12/30 00:45:07;;;;;;;;;;;;;;;16.31;67.62;100738.41;2093362;28;19929;-73
2022/12/30 00:46:10;;;;;;;;;;;;;;;16.31;67.68;100735.69;2085244;28;19929;-72
2022/12/30 00:47:14;;;;;;;;;;;;;;;16.30;67.56;100739.56;2093627;28;19933;-73
2022/12/30 00:56:19;;;;;;;;;;;;;;;16.30;67.63;100753.19;2093353;28;19932;-73
2022/12/30 00:57:21;;;;;;;;;;;;;;;16.29;67.63;100745.41;2092850;28;19928;-73
2022/12/30 00:58:23;;;;;;;;;;;;;;;16.30;67.62;100744.22;2091485;28;19936;-74
2022/12/30 00:59:26;;;;;;;;;;;;;;;16.30;67.63;100752.41;2093701;28;19959;-73
2022/12/30 01:00:29;;;;;;;;;;;;;;;16.30;67.29;100749.66;2091158;28;19928;-72
2022/12/30 01:01:30;;;;;;;;;;;;;;;16.29;67.66;100754.34;2091697;28;20268;-73
2022/12/30 01:02:33;;;;;;;;;;;;;;;16.29;67.35;100748.13;2091897;28;19936;-73
2022/12/30 01:03:35;;;;;;;;;;;;;;;16.29;67.23;100754.34;2095494;28;19933;-73
2022/12/30 01:04:38;;;;;;;;;;;;;;;16.28;67.36;100758.22;2096575;28;19962;-73
2022/12/30 01:05:40;;;;;;;;;;;;;;;16.28;67.45;100758.22;2094913;28;19928;-72
2022/12/30 01:06:42;;;;;;;;;;;;;;;16.29;67.35;100753.56;2093024;28;20007;-73
2022/12/30 01:07:45;;;;;;;;;;;;;;;16.29;67.71;100762.53;2085919;28;19929;-72
2022/12/30 01:08:48;;;;;;;;;;;;;;;16.28;67.52;100769.13;2084486;28;20021;-73
2022/12/30 01:09:50;;;;;;;;;;;;;;;16.28;67.36;100774.56;2091026;28;19932;-73
2022/12/30 01:10:52;;;;;;;;;;;;;;;16.28;67.28;100769.13;2091600;28;20646;-71
2022/12/30 01:12:09;;;;;;;;;;;;;;;16.29;67.33;100765.25;2095701;28;20385;-73
2022/12/30 01:13:12;;;;;;;;;;;;;;;16.28;67.21;100769.13;2093294;28;20367;-73
2022/12/30 01:14:14;;;;;;;;;;;;;;;16.28;67.20;100769.13;2093403;28;20011;-73
2022/12/30 01:15:16;;;;;;;;;;;;;;;16.28;67.45;100771.84;2085459;28;20035;-73
2022/12/30 01:16:18;;;;;;;;;;;;;;;16.28;67.45;100774.56;2084983;28;19980;-73
2022/12/30 01:17:22;;;;;;;;;;;;;;;16.27;67.39;100773.03;2090747;28;19932;-74
2022/12/30 01:18:24;;;;;;;;;;;;;;;16.27;67.12;100781.19;2099211;28;19968;-74
2022/12/30 01:19:27;;;;;;;;;;;;;;;16.27;67.18;100783.91;2101373;28;19936;-74
2022/12/30 01:20:28;;;;;;;;;;;;;;;16.28;67.25;100781.97;2092649;28;19933;-73
2022/12/30 01:21:31;;;;;;;;;;;;;;;16.27;67.36;100789.38;2094087;28;19931;-74
2022/12/30 01:22:32;;;;;;;;;;;;;;;16.27;67.07;100783.91;2084808;28;19928;-74
2022/12/30 01:23:37;;;;;;;;;;;;;;;16.28;67.21;100790.16;2091497;28;19983;-74
2022/12/30 01:24:38;;;;;;;;;;;;;;;16.26;67.12;100787.81;2085378;28;19932;-74
2022/12/30 01:25:41;;;;;;;;;;;;;;;16.27;67.23;100789.38;2084881;28;19932;-74
2022/12/30 01:26:43;;;;;;;;;;;;;;;16.27;67.08;100789.38;2091857;28;20094;-73
2022/12/30 01:27:49;;;;;;;;;;;;;;;16.27;67.10;100788.56;2086865;28;19940;-74
2022/12/30 01:28:51;;;;;;;;;;;;;;;16.26;66.94;100789.75;2084872;28;19937;-72
2022/12/30 01:29:54;;;;;;;;;;;;;;;16.26;67.18;100801.44;2077508;28;19933;-73
2022/12/30 01:30:56;;;;;;;;;;;;;;;16.26;67.30;100793.25;2087646;28;20019;-72
2022/12/30 01:31:59;;;;;;;;;;;;;;;16.25;67.20;100799.84;2095831;28;19929;-72
2022/12/30 01:33:00;;;;;;;;;;;;;;;16.26;67.24;100796.00;2092203;28;19987;-72
2022/12/30 01:34:03;;;;;;;;;;;;;;;16.25;66.97;100797.13;2092448;28;19990;-73
2022/12/30 01:35:06;;;;;;;;;;;;;;;16.26;66.98;100798.72;2094512;28;19924;-73
2022/12/30 01:36:08;;;;;;;;;;;;;;;16.26;66.88;100803.38;2086386;28;21221;-73
2022/12/30 01:37:10;;;;;;;;;;;;;;;16.25;66.90;100808.03;2083231;28;19924;-73
2022/12/30 01:38:13;;;;;;;;;;;;;;;16.25;67.04;100801.81;2093925;28;20343;-74
2022/12/30 01:39:16;;;;;;;;;;;;;;;16.25;66.91;100804.53;2092119;28;19929;-73
2022/12/30 01:40:19;;;;;;;;;;;;;;;16.25;66.98;100808.03;2079093;28;20381;-73
2022/12/30 01:41:20;;;;;;;;;;;;;;;16.25;67.17;100799.84;2080117;28;19925;-75
2022/12/30 01:42:25;;;;;;;;;;;;;;;16.25;67.04;100807.25;2078816;28;20023;-73
2022/12/30 01:43:44;;;;;;;;;;;;;;;16.25;67.04;100813.47;2080081;28;19929;-72
2022/12/30 01:44:56;;;;;;;;;;;;;;;16.25;67.02;100818.94;2077390;28;20420;-72
2022/12/30 01:45:59;;;;;;;;;;;;;;;16.25;67.08;100815.44;2078892;28;20363;-73
2022/12/30 01:47:00;;;;;;;;;;;;;;;16.25;66.73;100818.16;2085782;28;19948;-73
2022/12/30 01:48:05;;;;;;;;;;;;;;;16.25;66.99;100813.47;2090985;28;20395;-72
2022/12/30 01:49:07;;;;;;;;;;;;;;;16.24;67.03;100820.09;2092096;28;19985;-72
2022/12/30 01:50:17;;;;;;;;;;;;;;;16.24;66.88;100817.38;2091130;28;20017;-73
2022/12/30 01:51:21;;;;;;;;;;;;;;;16.24;66.68;100817.38;2084036;28;19932;-73
2022/12/30 01:52:25;;;;;;;;;;;;;;;16.24;66.79;100809.19;2093743;28;19945;-73
2022/12/30 01:53:28;;;;;;;;;;;;;;;16.24;66.75;100811.13;2093312;28;19985;-72
2022/12/30 01:54:40;;;;;;;;;;;;;;;16.24;66.68;100819.31;2095298;28;19925;-73
2022/12/30 01:55:55;;;;;;;;;;;;;;;16.23;66.95;100815.81;2094862;28;20054;-73
2022/12/30 01:57:19;;;;;;;;;;;;;;;16.23;66.95;100813.09;2094687;28;19963;-72
2022/12/30 01:58:28;;;;;;;;;;;;;;;16.24;66.60;100811.13;2093683;28;20403;-72
2022/12/30 01:59:31;;;;;;;;;;;;;;;16.24;66.91;100805.69;2093358;28;19932;-73
2022/12/30 02:00:34;;;;;;;;;;;;;;;16.23;66.92;100810.38;2091831;28;20391;-72
2022/12/30 02:01:36;;;;;;;;;;;;;;;16.24;66.54;100811.13;2092044;28;19972;-72
2022/12/30 02:02:40;;;;;;;;;;;;;;;16.23;66.88;100810.38;2093678;28;20003;-72
2022/12/30 02:03:44;;;;;;;;;;;;;;;16.23;66.62;100809.56;2091609;28;19929;-73
2022/12/30 02:04:47;;;;;;;;;;;;;;;16.22;66.61;100808.78;2085555;28;19936;-73
2022/12/30 02:05:49;;;;;;;;;;;;;;;16.22;66.69;100814.25;2085509;28;20456;-72
2022/12/30 02:06:56;;;;;;;;;;;;;;;16.22;66.69;100814.25;2086408;28;19928;-72
2022/12/30 02:08:01;;;;;;;;;;;;;;;16.23;66.51;100821.28;2092467;28;20077;-71
2022/12/30 02:09:04;;;;;;;;;;;;;;;16.22;66.73;100818.91;2092444;28;19971;-72
2022/12/30 02:10:08;;;;;;;;;;;;;;;16.22;66.73;100814.25;2076210;28;19933;-73
2022/12/30 02:11:10;;;;;;;;;;;;;;;16.23;66.64;100815.81;2083855;28;19932;-73
2022/12/30 02:12:12;;;;;;;;;;;;;;;16.23;66.60;100820.47;2092761;28;19928;-72
2022/12/30 02:13:16;;;;;;;;;;;;;;;16.23;66.56;100820.47;2091137;28;20352;-72
2022/12/30 02:14:19;;;;;;;;;;;;;;;16.22;66.41;100819.69;2096391;28;20408;-73
2022/12/30 02:15:25;;;;;;;;;;;;;;;16.22;66.58;100827.09;2085819;28;19937;-73
2022/12/30 02:16:36;;;;;;;;;;;;;;;16.21;66.39;100829.03;2088284;28;20725;-72
2022/12/30 02:17:46;;;;;;;;;;;;;;;16.22;66.62;100833.31;2100276;28;20349;-72
2022/12/30 02:18:56;;;;;;;;;;;;;;;16.21;66.56;100834.47;2091443;28;20311;-73
2022/12/30 02:20:15;;;;;;;;;;;;;;;16.21;66.52;100837.19;2084077;28;19948;-73
2022/12/30 02:21:29;;;;;;;;;;;;;;;16.21;66.26;100834.47;2078113;28;20158;-72
2022/12/30 02:22:43;;;;;;;;;;;;;;;16.21;66.54;100839.94;2090248;28;19940;-71
2022/12/30 02:23:54;;;;;;;;;;;;;;;16.21;66.40;100830.97;2093456;28;19929;-71
2022/12/30 02:25:23;;;;;;;;;;;;;;;16.21;66.43;100831.75;2093854;28;19932;-71
2022/12/30 02:26:49;;;;;;;;;;;;;;;16.20;66.39;100832.91;2073025;28;20400;-72
2022/12/30 02:28:11;;;;;;;;;;;;;;;16.21;66.47;100836.41;2092742;28;19929;-71
2022/12/30 02:29:23;;;;;;;;;;;;;;;16.20;66.18;100830.19;2079955;28;20430;-72
2022/12/30 02:30:33;;;;;;;;;;;;;;;16.19;66.16;100834.06;2083437;28;19928;-72
2022/12/30 02:31:41;;;;;;;;;;;;;;;16.21;66.11;100833.69;2094671;28;20436;-72
2022/12/30 02:32:55;;;;;;;;;;;;;;;16.19;66.31;100825.91;2093192;28;19928;-71
2022/12/30 02:34:03;;;;;;;;;;;;;;;16.18;66.03;100832.50;2095979;28;19974;-72
2022/12/30 02:35:12;;;;;;;;;;;;;;;16.19;66.32;100831.34;2093864;28;19929;-69
2022/12/30 02:36:19;;;;;;;;;;;;;;;16.19;66.00;100830.56;2092121;28;20457;-72
2022/12/30 02:37:25;;;;;;;;;;;;;;;16.19;66.12;100820.44;2084797;28;19998;-71
2022/12/30 02:38:36;;;;;;;;;;;;;;;16.19;66.27;100830.56;2085465;28;19928;-72
2022/12/30 02:39:44;;;;;;;;;;;;;;;16.19;66.04;100831.34;2087990;28;19928;-71
2022/12/30 02:45:03;;;;;;;;;;;;;;;16.18;66.00;100824.34;2095697;28;20306;-71
2022/12/30 02:46:07;;;;;;;;;;;;;;;16.18;65.94;100818.88;2089470;28;20629;-72
2022/12/30 02:47:19;;;;;;;;;;;;;;;16.18;65.98;100824.34;2093485;28;20406;-72
2022/12/30 02:48:22;;;;;;;;;;;;;;;16.18;65.91;100835.22;2100078;28;19932;-72
2022/12/30 02:49:26;;;;;;;;;;;;;;;16.17;66.00;100830.94;2095764;28;19932;-72
2022/12/30 02:53:13;;;;;;;;;;;;;;;16.17;65.98;100839.09;2094165;28;19932;-72
2022/12/30 02:54:15;;;;;;;;;;;;;;;16.17;65.86;100835.63;2086460;28;19925;-72
2022/12/30 02:55:18;;;;;;;;;;;;;;;16.17;66.06;100838.34;2088995;28;19924;-73
2022/12/30 02:56:21;;;;;;;;;;;;;;;16.17;65.86;100832.88;2095377;28;19945;-73
2022/12/30 02:57:24;;;;;;;;;;;;;;;16.17;65.68;100841.81;2095021;28;19932;-73
2022/12/30 02:58:29;;;;;;;;;;;;;;;16.16;65.87;100834.81;2087674;28;19932;-72
2022/12/30 03:04:00;;;;;;;;;;;;;;;16.17;65.77;100832.88;2093203;28;19936;-73
2022/12/30 03:05:11;;;;;;;;;;;;;;;16.15;65.78;100830.53;2094214;28;20341;-73
2022/12/30 03:06:25;;;;;;;;;;;;;;;16.16;65.76;100823.94;2094953;28;19924;-73
2022/12/30 03:07:32;;;;;;;;;;;;;;;16.14;65.86;100823.50;2098511;28;19950;-72
2022/12/30 03:08:37;;;;;;;;;;;;;;;16.16;65.62;100826.66;2094641;28;19973;-73
2022/12/30 03:11:12;;;;;;;;;;;;;;;16.16;65.57;100831.31;2085217;28;19966;-73
2022/12/30 03:11:16;;;;;;;;;;;;;;;16.16;65.89;100831.31;2094792;28;20502;-73
2022/12/30 03:12:23;;;;;;;;;;;;;;;16.15;65.53;100829.75;2099682;28;19929;-73
2022/12/30 03:13:27;;;;;;;;;;;;;;;16.15;65.73;100830.53;2094326;28;19978;-73
2022/12/30 03:14:32;;;;;;;;;;;;;;;16.15;65.67;100833.28;2086618;28;20027;-73
2022/12/30 03:15:38;;;;;;;;;;;;;;;16.16;65.80;100831.31;2093379;28;19928;-73
2022/12/30 03:16:43;;;;;;;;;;;;;;;16.15;65.59;100838.72;2093840;28;19939;-74
2022/12/30 03:17:47;;;;;;;;;;;;;;;16.14;65.53;100839.09;2087291;28;20434;-73
2022/12/30 03:18:51;;;;;;;;;;;;;;;16.14;65.81;100842.59;2095949;28;19973;-73
2022/12/30 03:19:55;;;;;;;;;;;;;;;16.14;65.61;100837.13;2085606;28;20004;-73
2022/12/30 03:20:58;;;;;;;;;;;;;;;16.14;65.52;100842.59;2082937;28;19933;-72
2022/12/30 03:22:00;;;;;;;;;;;;;;;16.15;65.67;100840.66;2094729;28;19954;-73
2022/12/30 03:27:11;;;;;;;;;;;;;;;16.14;65.37;100839.09;2094923;28;20011;-72
2022/12/30 03:28:13;;;;;;;;;;;;;;;16.14;65.44;100844.53;2088570;28;19929;-72
2022/12/30 03:29:19;;;;;;;;;;;;;;;16.13;65.38;100838.31;2094783;28;19988;-72
2022/12/30 03:30:21;;;;;;;;;;;;;;;16.14;65.56;100834.41;2092921;28;20007;-72
2022/12/30 03:31:24;;;;;;;;;;;;;;;16.13;65.37;100838.31;2084466;28;19987;-72
2022/12/30 03:32:27;;;;;;;;;;;;;;;16.14;65.42;100833.66;2095061;28;19933;-73
2022/12/30 03:33:32;;;;;;;;;;;;;;;16.13;65.10;100837.50;2093376;28;19932;-72
2022/12/30 03:34:34;;;;;;;;;;;;;;;16.14;65.45;100841.81;2086091;28;20006;-72
2022/12/30 03:35:38;;;;;;;;;;;;;;;16.12;65.27;100844.91;2086635;28;19933;-72
2022/12/30 03:36:43;;;;;;;;;;;;;;;16.13;65.25;100837.50;2084503;28;19925;-72
2022/12/30 03:37:47;;;;;;;;;;;;;;;16.12;65.25;100830.50;2092304;28;20471;-72
2022/12/30 03:38:53;;;;;;;;;;;;;;;16.12;65.20;100825.84;2099747;28;20467;-72
2022/12/30 03:39:58;;;;;;;;;;;;;;;16.12;65.36;100823.13;2096079;28;19974;-72
2022/12/30 03:41:02;;;;;;;;;;;;;;;16.13;65.14;100823.91;2085547;28;19929;-72
2022/12/30 03:42:06;;;;;;;;;;;;;;;16.12;65.11;100820.41;2092219;28;20039;-73
2022/12/30 03:43:10;;;;;;;;;;;;;;;16.12;65.18;100814.97;2093642;28;20007;-72
2022/12/30 03:44:12;;;;;;;;;;;;;;;16.12;65.22;100814.97;2093959;28;19928;-72
2022/12/30 03:45:15;;;;;;;;;;;;;;;16.11;65.15;100818.81;2099591;28;19966;-71
2022/12/30 03:46:18;;;;;;;;;;;;;;;16.12;65.06;100820.41;2092650;28;19931;-71
2022/12/30 03:47:24;;;;;;;;;;;;;;;16.12;65.39;100819.63;2088548;28;20335;-72
2022/12/30 03:48:26;;;;;;;;;;;;;;;16.11;64.99;100821.56;2078526;28;19980;-72
2022/12/30 03:49:30;;;;;;;;;;;;;;;16.12;65.16;100820.41;2087094;28;20408;-72
2022/12/30 03:50:32;;;;;;;;;;;;;;;16.11;64.97;100823.50;2088655;28;19936;-73
2022/12/30 03:51:35;;;;;;;;;;;;;;;16.11;65.06;100821.56;2092218;28;19939;-73
2022/12/30 03:52:37;;;;;;;;;;;;;;;16.11;64.92;100815.34;2085447;28;19932;-72
2022/12/30 03:53:39;;;;;;;;;;;;;;;16.11;65.09;100828.97;2087388;28;19932;-72
2022/12/30 03:54:41;;;;;;;;;;;;;;;16.11;65.21;100829.72;2094781;28;19931;-73
2022/12/30 03:55:44;;;;;;;;;;;;;;;16.11;64.92;100835.16;2091339;28;19998;-73
2022/12/30 03:56:46;;;;;;;;;;;;;;;16.10;65.27;100836.34;2089151;28;21181;-73
2022/12/30 03:57:49;;;;;;;;;;;;;;;16.11;65.10;100848.78;2090477;28;19972;-73
2022/12/30 03:58:51;;;;;;;;;;;;;;;16.11;64.98;100853.47;2093070;28;19928;-72
2022/12/30 03:59:54;;;;;;;;;;;;;;;16.10;65.19;100849.97;2092912;28;19932;-70
2022/12/30 04:00:56;;;;;;;;;;;;;;;16.09;64.97;100848.38;2092090;28;20312;-71
2022/12/30 04:01:59;;;;;;;;;;;;;;;16.09;64.89;100845.66;2093157;28;19928;-69
2022/12/30 04:03:01;;;;;;;;;;;;;;;16.10;64.89;100854.63;2087443;28;19948;-70
2022/12/30 04:04:04;;;;;;;;;;;;;;;16.09;64.63;100842.94;2085938;28;20007;-69
2022/12/30 04:05:08;;;;;;;;;;;;;;;16.10;64.80;100832.81;2092016;28;20012;-70
2022/12/30 04:06:11;;;;;;;;;;;;;;;16.10;64.76;100844.50;2089751;28;19925;-69
2022/12/30 04:07:13;;;;;;;;;;;;;;;16.10;64.90;100838.28;2083570;28;20063;-68
2022/12/30 04:08:16;;;;;;;;;;;;;;;16.10;64.84;100843.72;2084470;28;19925;-69
2022/12/30 04:09:18;;;;;;;;;;;;;;;16.10;65.08;100847.22;2093575;28;19928;-68
2022/12/30 04:10:21;;;;;;;;;;;;;;;16.09;64.98;100845.66;2093426;28;19998;-68
2022/12/30 04:11:22;;;;;;;;;;;;;;;16.10;64.68;100855.41;2096321;28;19933;-68
2022/12/30 04:12:25;;;;;;;;;;;;;;;16.09;64.76;100845.66;2096098;28;19939;-69
2022/12/30 04:13:27;;;;;;;;;;;;;;;16.09;65.04;100842.94;2094573;28;19928;-70
2022/12/30 04:14:29;;;;;;;;;;;;;;;16.08;64.70;100841.38;2094018;28;19928;-69
2022/12/30 04:15:31;;;;;;;;;;;;;;;16.09;64.96;100842.16;2093239;28;19935;-69
2022/12/30 04:16:34;;;;;;;;;;;;;;;16.09;64.72;100840.19;2093291;28;19928;-70
2022/12/30 04:17:36;;;;;;;;;;;;;;;16.10;64.71;100835.53;2084263;28;19928;-69
2022/12/30 04:18:39;;;;;;;;;;;;;;;16.09;64.56;100834.75;2087177;28;19940;-70
2022/12/30 04:19:40;;;;;;;;;;;;;;;16.08;64.79;100841.38;2089291;28;20788;-69
2022/12/30 04:20:45;;;;;;;;;;;;;;;16.09;64.80;100834.75;2091338;28;20379;-68
2022/12/30 04:21:47;;;;;;;;;;;;;;;16.09;64.62;100836.72;2099235;28;19998;-69
2022/12/30 04:22:51;;;;;;;;;;;;;;;16.08;64.68;100833.19;2093843;28;19968;-69
2022/12/30 04:23:52;;;;;;;;;;;;;;;16.08;64.79;100830.47;2092563;28;19933;-68
2022/12/30 04:24:55;;;;;;;;;;;;;;;16.08;64.75;100838.66;2094678;28;19928;-69
2022/12/30 04:25:58;;;;;;;;;;;;;;;16.08;64.57;100833.19;2090560;28;19929;-69
2022/12/30 04:27:01;;;;;;;;;;;;;;;16.08;64.64;100829.69;2086344;28;20495;-69
2022/12/30 04:28:03;;;;;;;;;;;;;;;16.09;64.50;100842.94;2079210;28;20435;-70
2022/12/30 04:29:06;;;;;;;;;;;;;;;16.08;64.54;100830.47;2075313;28;20553;-70
2022/12/30 04:30:08;;;;;;;;;;;;;;;16.08;64.23;100835.13;2091589;28;19950;-69
2022/12/30 04:31:11;;;;;;;;;;;;;;;16.07;64.49;100834.38;2092390;28;19948;-69
2022/12/30 04:32:13;;;;;;;;;;;;;;;16.08;64.51;100830.47;2085254;28;19929;-69
2022/12/30 04:33:16;;;;;;;;;;;;;;;16.08;64.40;100830.47;2082363;28;19952;-70
2022/12/30 04:34:18;;;;;;;;;;;;;;;16.07;64.72;100831.66;2083643;28;19929;-69
2022/12/30 04:35:21;;;;;;;;;;;;;;;16.08;64.47;100835.13;2094216;28;19928;-70
2022/12/30 04:36:24;;;;;;;;;;;;;;;16.07;64.48;100822.69;2093667;28;19932;-70
2022/12/30 04:37:26;;;;;;;;;;;;;;;16.07;64.48;100828.94;2083887;28;19937;-70
2022/12/30 04:38:28;;;;;;;;;;;;;;;16.08;64.34;100827.75;2083640;28;20459;-70
2022/12/30 04:39:31;;;;;;;;;;;;;;;16.07;64.48;100834.38;2079551;28;19968;-71
2022/12/30 04:40:33;;;;;;;;;;;;;;;16.07;64.30;100839.81;2069861;28;19937;-70
2022/12/30 04:41:35;;;;;;;;;;;;;;;16.08;64.40;100837.84;2082123;28;19933;-70
2022/12/30 04:42:37;;;;;;;;;;;;;;;16.07;64.28;100841.75;2093496;28;19925;-70
2022/12/30 04:43:40;;;;;;;;;;;;;;;16.07;64.28;100845.25;2082840;28;19990;-70
2022/12/30 04:44:42;;;;;;;;;;;;;;;16.07;64.37;100841.75;2087473;28;19932;-70
2022/12/30 04:45:45;;;;;;;;;;;;;;;16.07;64.44;100845.25;2092888;28;19940;-70
2022/12/30 04:46:47;;;;;;;;;;;;;;;16.07;64.45;100849.91;2093760;28;19979;-70
2022/12/30 04:47:50;;;;;;;;;;;;;;;16.07;64.28;100858.88;2087220;28;19933;-70
2022/12/30 04:48:51;;;;;;;;;;;;;;;16.07;64.42;100860.81;2086993;28;20015;-70
2022/12/30 04:49:57;;;;;;;;;;;;;;;16.07;64.34;100864.34;2089997;28;19933;-70
2022/12/30 04:50:59;;;;;;;;;;;;;;;16.06;64.49;100864.72;2085161;28;19928;-71
2022/12/30 04:52:04;;;;;;;;;;;;;;;16.06;64.41;100870.16;2091904;28;19928;-70
2022/12/30 04:53:05;;;;;;;;;;;;;;;16.06;64.24;100876.38;2093997;28;19932;-70
2022/12/30 04:54:08;;;;;;;;;;;;;;;16.07;64.17;100875.22;2085238;28;19924;-71
2022/12/30 04:55:10;;;;;;;;;;;;;;;16.06;64.18;100872.88;2085863;28;19933;-70
2022/12/30 04:56:13;;;;;;;;;;;;;;;16.07;64.29;100882.59;2082634;28;19943;-70
2022/12/30 04:57:14;;;;;;;;;;;;;;;16.07;64.13;100879.88;2093462;28;20011;-70
2022/12/30 04:58:17;;;;;;;;;;;;;;;16.06;64.19;100875.59;2096252;28;19951;-70
2022/12/30 04:59:19;;;;;;;;;;;;;;;16.05;64.32;100874.81;2084186;28;19998;-71
2022/12/30 05:00:22;;;;;;;;;;;;;;;16.05;63.87;100885.69;2078034;28;20020;-71
2022/12/30 05:01:23;;;;;;;;;;;;;;;16.05;64.17;100885.69;2087644;28;19933;-70
2022/12/30 05:02:26;;;;;;;;;;;;;;;16.05;64.17;100868.56;2094106;28;19936;-70
2022/12/30 05:03:28;;;;;;;;;;;;;;;16.05;64.01;100872.09;2085460;28;19925;-70
2022/12/30 05:04:31;;;;;;;;;;;;;;;16.05;64.17;100874.03;2087080;28;20005;-70
2022/12/30 05:05:33;;;;;;;;;;;;;;;16.05;63.92;100876.75;2081949;28;19933;-69
2022/12/30 05:06:36;;;;;;;;;;;;;;;16.05;63.97;100872.09;2087793;28;19937;-70
2022/12/30 05:07:39;;;;;;;;;;;;;;;16.04;63.93;100862.38;2093987;28;20304;-70
2022/12/30 05:08:42;;;;;;;;;;;;;;;16.05;63.98;100868.56;2085555;28;19929;-70
2022/12/30 05:09:43;;;;;;;;;;;;;;;16.04;64.14;100856.91;2085434;28;20003;-70
2022/12/30 05:10:46;;;;;;;;;;;;;;;16.04;63.89;100856.91;2084753;28;20343;-70
2022/12/30 05:11:48;;;;;;;;;;;;;;;16.04;63.97;100865.09;2090339;28;19991;-70
2022/12/30 05:12:50;;;;;;;;;;;;;;;16.03;63.86;100855.34;2093944;28;20409;-71
2022/12/30 05:13:52;;;;;;;;;;;;;;;16.04;63.91;100859.63;2082540;28;19971;-69
2022/12/30 05:14:55;;;;;;;;;;;;;;;16.04;63.91;100865.09;2086146;28;20422;-71
2022/12/30 05:15:57;;;;;;;;;;;;;;;16.04;64.01;100867.81;2087102;28;19944;-71
2022/12/30 05:17:00;;;;;;;;;;;;;;;16.03;63.76;100860.00;2086235;28;19936;-71
2022/12/30 05:18:01;;;;;;;;;;;;;;;16.03;63.94;100863.50;2084028;28;20388;-70
2022/12/30 05:19:04;;;;;;;;;;;;;;;16.03;63.81;100871.66;2085816;28;20028;-70
2022/12/30 05:20:06;;;;;;;;;;;;;;;16.04;63.86;100875.19;2075869;28;19937;-71
2022/12/30 05:21:09;;;;;;;;;;;;;;;16.03;63.77;100877.13;2093476;28;19952;-70
2022/12/30 05:22:11;;;;;;;;;;;;;;;16.04;63.73;100880.63;2093442;28;19950;-71
2022/12/30 05:27:12;;;;;;;;;;;;;;;16.03;63.84;100879.09;2086113;28;19983;-68
2022/12/30 05:28:14;;;;;;;;;;;;;;;16.01;63.64;100876.72;2084959;28;19940;-68
2022/12/30 05:29:16;;;;;;;;;;;;;;;16.02;63.85;100872.84;2083702;28;19936;-68
2022/12/30 05:30:18;;;;;;;;;;;;;;;16.03;63.97;100876.34;2085835;28;19974;-70
2022/12/30 05:31:21;;;;;;;;;;;;;;;16.03;63.56;100873.63;2082969;28;20399;-69
2022/12/30 05:32:23;;;;;;;;;;;;;;;16.03;63.79;100884.53;2084356;28;19987;-70
2022/12/30 05:33:26;;;;;;;;;;;;;;;16.02;63.61;100881.00;2076029;28;19933;-70
2022/12/30 05:34:28;;;;;;;;;;;;;;;16.02;63.69;100880.22;2078341;28;20521;-70
2022/12/30 05:35:30;;;;;;;;;;;;;;;16.03;63.64;100877.13;2087193;28;19964;-69
2022/12/30 05:36:33;;;;;;;;;;;;;;;16.02;63.57;100875.56;2094861;28;19924;-68
2022/12/30 05:37:35;;;;;;;;;;;;;;;16.02;63.47;100875.56;2086579;28;20023;-69
2022/12/30 05:38:39;;;;;;;;;;;;;;;16.02;63.51;100872.84;2085786;28;19939;-69
2022/12/30 05:39:42;;;;;;;;;;;;;;;16.02;63.74;100872.84;2082401;28;20343;-69
2022/12/30 05:40:44;;;;;;;;;;;;;;;16.03;63.56;100876.34;2092923;28;20448;-70
2022/12/30 05:41:46;;;;;;;;;;;;;;;16.01;63.45;100863.13;2076307;28;19994;-69
2022/12/30 05:42:48;;;;;;;;;;;;;;;16.02;63.77;100864.66;2085432;28;20381;-69
2022/12/30 05:43:51;;;;;;;;;;;;;;;16.02;63.53;100878.28;2084713;28;19929;-69
2022/12/30 05:44:52;;;;;;;;;;;;;;;16.02;63.43;100869.31;2093139;28;19928;-69
2022/12/30 05:45:55;;;;;;;;;;;;;;;16.02;63.46;100877.50;2086541;28;19968;-69
2022/12/30 05:46:57;;;;;;;;;;;;;;;16.01;63.55;100876.72;2094926;28;20071;-70
2022/12/30 05:48:00;;;;;;;;;;;;;;;16.01;63.65;100871.28;2091528;28;19975;-70
2022/12/30 05:49:01;;;;;;;;;;;;;;;16.01;63.48;100865.06;2081943;28;20439;-70
2022/12/30 05:50:04;;;;;;;;;;;;;;;16.02;63.53;100872.06;2085491;28;19976;-70
2022/12/30 05:51:06;;;;;;;;;;;;;;;16.02;63.41;100880.22;2084776;28;20021;-70
2022/12/30 05:52:09;;;;;;;;;;;;;;;16.01;63.34;100874.00;2085003;28;20450;-70
2022/12/30 05:53:11;;;;;;;;;;;;;;;16.01;63.35;100865.84;2084667;28;19940;-70
2022/12/30 05:54:15;;;;;;;;;;;;;;;16.01;63.44;100857.66;2089007;28;19925;-70
2022/12/30 05:55:17;;;;;;;;;;;;;;;16.01;63.43;100863.13;2093517;28;20003;-71
2022/12/30 05:56:20;;;;;;;;;;;;;;;16.01;63.37;100863.13;2092692;28;20391;-69
2022/12/30 05:57:21;;;;;;;;;;;;;;;16.01;63.40;100854.16;2084516;28;20387;-70
2022/12/30 05:58:24;;;;;;;;;;;;;;;16.01;63.53;100863.13;2083965;28;19971;-70
2022/12/30 05:59:27;;;;;;;;;;;;;;;16.00;63.53;100861.53;2082906;28;20429;-70
2022/12/30 06:00:30;;;;;;;;;;;;;;;16.01;63.42;100862.31;2093515;28;19932;-70
2022/12/30 06:01:32;;;;;;;;;;;;;;;16.01;63.53;100852.22;2087874;28;19947;-70
2022/12/30 06:02:34;;;;;;;;;;;;;;;16.01;63.42;100846.78;2083725;28;19925;-70
2022/12/30 06:03:41;;;;;;;;;;;;;;;16.00;63.08;100842.47;2084804;28;19929;-70
2022/12/30 06:04:44;;;;;;;;;;;;;;;16.01;63.45;100846.78;2092031;28;19924;-69
2022/12/30 06:05:46;;;;;;;;;;;;;;;16.00;62.93;100844.41;2081069;28;19929;-70
2022/12/30 06:06:49;;;;;;;;;;;;;;;16.00;63.30;100852.56;2093538;28;20402;-68
2022/12/30 06:07:50;;;;;;;;;;;;;;;16.00;63.11;100842.47;2087080;28;19953;-69
2022/12/30 06:08:53;;;;;;;;;;;;;;;16.00;63.27;100834.31;2072170;28;19953;-69
2022/12/30 06:09:56;;;;;;;;;;;;;;;16.01;63.14;100845.97;2086782;28;19933;-69
2022/12/30 06:10:59;;;;;;;;;;;;;;;16.00;63.14;100849.84;2092315;28;19951;-69
2022/12/30 06:12:02;;;;;;;;;;;;;;;16.00;63.06;100849.84;2080187;28;19929;-69
2022/12/30 06:13:04;;;;;;;;;;;;;;;16.00;63.17;100849.84;2076907;28;19940;-68
2022/12/30 06:14:06;;;;;;;;;;;;;;;16.00;63.09;100847.13;2082796;28;19983;-68
2022/12/30 06:15:09;;;;;;;;;;;;;;;15.99;63.12;100840.91;2097174;28;19924;-69
2022/12/30 06:16:12;;;;;;;;;;;;;;;15.99;63.19;100843.63;2092510;28;20312;-70
2022/12/30 06:17:13;;;;;;;;;;;;;;;15.99;63.06;100843.63;2083956;28;20415;-70
2022/12/30 06:18:16;;;;;;;;;;;;;;;16.00;62.98;100860.75;2083601;28;19975;-70
2022/12/30 06:19:18;;;;;;;;;;;;;;;15.99;63.00;100853.75;2092812;28;20015;-69